Time;durP1;ratioP1;P1;durP2;ratioP2;P2;SDS_P1;SDS_P2;PMS_P1;PMS_P2;Temp;Humidity;BMP_temperature;BMP_pressure;BME280_temperature;BME280_humidity;BME280_pressure;Samples;Min_cycle;Max_cycle;Signal;HPM_P1;HPM_P2
2021/11/21 00:05:00;;;;;;;8.4;10.9;;;;;;;9.9;73.4;98610;;;;
2021/11/21 00:16:00;;;;;;;9.7;12.6;;;;;;;9.9;73.2;98600;;;;
2021/11/21 00:26:00;;;;;;;9.7;12.6;;;;;;;9.8;72.9;98590;;;;
2021/11/21 00:37:00;;;;;;;9.7;12.6;;;;;;;9.9;72.7;98580;;;;
2021/11/21 00:47:00;;;;;;;8.6;11.6;;;;;;;9.9;72.6;98570;;;;
2021/11/21 00:57:00;;;;;;;8.6;11.6;;;;;;;9.9;72.6;98560;;;;
2021/11/21 01:08:00;;;;;;;8.6;11.6;;;;;;;9.8;72.6;98540;;;;
2021/11/21 01:18:00;;;;;;;7.7;11.9;;;;;;;9.8;72.7;98530;;;;
2021/11/21 01:29:00;;;;;;;7.7;11.9;;;;;;;9.7;72.7;98510;;;;
2021/11/21 01:40:00;;;;;;;7.7;11.9;;;;;;;9.7;72.5;98480;;;;
2021/11/21 01:50:00;;;;;;;7.3;10;;;;;;;9.5;72.4;98460;;;;
2021/11/21 02:00:02;;;;;;;7.3;10;;;;;;;9.3;72.4;98450;;;;
2021/11/21 02:10:00;;;;;;;7.3;10;;;;;;;9.4;72;98430;;;;
2021/11/21 02:20:03;;;;;;;4.3;8.3;;;;;;;9.5;71.7;98420;;;;
2021/11/21 02:30:00;;;;;;;4.3;8.3;;;;;;;9.5;71.7;98400;;;;
2021/11/21 02:40:00;;;;;;;4.3;8.3;;;;;;;9.5;71.8;98380;;;;
2021/11/21 02:51:00;;;;;;;4.7;6.6;;;;;;;9.4;71.9;98370;;;;
2021/11/21 03:01:00;;;;;;;4.7;6.6;;;;;;;9.4;72.4;98370;;;;
2021/11/21 03:12:00;;;;;;;4.7;6.6;;;;;;;9.2;72.9;98360;;;;
2021/11/21 03:23:00;;;;;;;5.6;8.3;;;;;;;9;74;98330;;;;
2021/11/21 03:34:00;;;;;;;5.6;8.3;;;;;;;8.4;75.5;98320;;;;
2021/11/21 03:45:00;;;;;;;5.3;8.3;;;;;;;8;76.5;98310;;;;
2021/11/21 03:56:00;;;;;;;5.3;8.3;;;;;;;7.7;77.1;98300;;;;
2021/11/21 04:07:00;;;;;;;5.3;8.3;;;;;;;7.5;77.4;98290;;;;
2021/11/21 04:17:00;;;;;;;5.2;8;;;;;;;7.2;77.5;98290;;;;
2021/11/21 04:28:00;;;;;;;5.2;8;;;;;;;6.9;77.6;98280;;;;
2021/11/21 04:38:00;;;;;;;5.2;8;;;;;;;6.8;78.9;98280;;;;
2021/11/21 04:48:00;;;;;;;4.9;6.8;;;;;;;6.8;79.5;98270;;;;
2021/11/21 04:58:00;;;;;;;4.9;6.8;;;;;;;6.7;78.7;98250;;;;
2021/11/21 05:09:01;;;;;;;4.9;6.8;;;;;;;6.4;79.1;98230;;;;
2021/11/21 05:20:00;;;;;;;5.3;8.2;;;;;;;6.5;78.6;98230;;;;
2021/11/21 05:30:00;;;;;;;5.3;8.2;;;;;;;6.5;78.8;98220;;;;
2021/11/21 05:41:00;;;;;;;5.3;8.2;;;;;;;6.4;78.9;98220;;;;
2021/11/21 05:52:00;;;;;;;5.6;8.4;;;;;;;6.3;78.6;98200;;;;
2021/11/21 06:03:00;;;;;;;5.6;8.4;;;;;;;6.3;78.6;98200;;;;
2021/11/21 06:14:00;;;;;;;4.3;6.8;;;;;;;6.1;77.9;98210;;;;
2021/11/21 06:24:00;;;;;;;4.3;6.8;;;;;;;5.8;78.1;98210;;;;
2021/11/21 06:34:00;;;;;;;4.3;6.8;;;;;;;6;79.9;98200;;;;
2021/11/21 06:45:00;;;;;;;4.1;6.5;;;;;;;6.1;79.8;98190;;;;
2021/11/21 06:56:00;;;;;;;4.1;6.5;;;;;;;6.2;78.8;98190;;;;
2021/11/21 07:06:00;;;;;;;4.1;6.5;;;;;;;6.3;78.6;98170;;;;
2021/11/21 07:17:00;;;;;;;3.9;9.4;;;;;;;6.4;78.4;98180;;;;
2021/11/21 07:27:00;;;;;;;3.9;9.4;;;;;;;6.5;78.3;98180;;;;
2021/11/21 07:37:00;;;;;;;3.9;9.4;;;;;;;6.6;78;98180;;;;
2021/11/21 07:48:00;;;;;;;6.8;10.2;;;;;;;6.7;78;98170;;;;
2021/11/21 07:59:00;;;;;;;6.8;10.2;;;;;;;6.8;78.1;98170;;;;
2021/11/21 08:09:00;;;;;;;6.8;10.2;;;;;;;7.1;78.2;98160;;;;
2021/11/21 08:19:00;;;;;;;8.4;11.8;;;;;;;7.5;78;98150;;;;
2021/11/21 08:29:00;;;;;;;8.4;11.8;;;;;;;7.7;77.1;98150;;;;
2021/11/21 08:40:00;;;;;;;8.4;11.8;;;;;;;7.9;76.5;98150;;;;
2021/11/21 08:50:00;;;;;;;10.8;15.3;;;;;;;8.2;75.4;98150;;;;
2021/11/21 09:00:04;;;;;;;10.8;15.3;;;;;;;8.5;74.3;98140;;;;
2021/11/21 09:11:00;;;;;;;10.8;15.3;;;;;;;8.8;73.6;98130;;;;
2021/11/21 09:22:00;;;;;;;11.9;15.1;;;;;;;9.1;72.8;98110;;;;
2021/11/21 09:32:00;;;;;;;11.9;15.1;;;;;;;9.7;71.8;98100;;;;
2021/11/21 09:43:00;;;;;;;9.7;16.8;;;;;;;10.2;69.9;98090;;;;
2021/11/21 09:54:00;;;;;;;9.7;16.8;;;;;;;10.3;69.1;98080;;;;
2021/11/21 10:04:00;;;;;;;9.7;16.8;;;;;;;10.2;69;98070;;;;
2021/11/21 10:15:00;;;;;;;9.2;12;;;;;;;10.3;69.6;98050;;;;
2021/11/21 10:26:00;;;;;;;9.2;12;;;;;;;10.7;68.1;98050;;;;
2021/11/21 10:37:00;;;;;;;9.2;12;;;;;;;10.8;67.5;98050;;;;
2021/11/21 10:47:00;;;;;;;11.2;13.5;;;;;;;11.2;66;98040;;;;
2021/11/21 10:58:00;;;;;;;11.2;13.5;;;;;;;11.6;66.4;98020;;;;
2021/11/21 11:08:01;;;;;;;11.2;13.5;;;;;;;11.2;65.8;98020;;;;
2021/11/21 11:19:00;;;;;;;9.7;13.3;;;;;;;11.1;66;98000;;;;
2021/11/21 11:29:02;;;;;;;9.7;13.3;;;;;;;11.1;66.3;98000;;;;
2021/11/21 11:40:00;;;;;;;9.7;13.3;;;;;;;11.1;66.1;97990;;;;
2021/11/21 11:50:00;;;;;;;10;13.4;;;;;;;10.6;66.6;97970;;;;
2021/11/21 12:01:00;;;;;;;10;13.4;;;;;;;10.6;67.3;97960;;;;
2021/11/21 12:12:01;;;;;;;10.3;12.2;;;;;;;10.5;67.2;97970;;;;
2021/11/21 12:22:01;;;;;;;10.3;12.2;;;;;;;10.5;67.8;97970;;;;
2021/11/21 12:33:02;;;;;;;10.3;12.2;;;;;;;10.5;67.9;97970;;;;
2021/11/21 12:43:00;;;;;;;11.2;14.7;;;;;;;10.4;67.9;97970;;;;
2021/11/21 12:53:00;;;;;;;11.2;14.7;;;;;;;10.6;67.8;97970;;;;
2021/11/21 13:04:00;;;;;;;11.2;14.7;;;;;;;10.7;66.9;97970;;;;
2021/11/21 13:14:02;;;;;;;9.4;11.5;;;;;;;10.7;66.8;97970;;;;
2021/11/21 13:24:00;;;;;;;9.4;11.5;;;;;;;10.7;66.5;97970;;;;
2021/11/21 13:35:00;;;;;;;9.4;11.5;;;;;;;10.6;66.7;97970;;;;
2021/11/21 13:46:00;;;;;;;9;13.1;;;;;;;10.4;66.7;97980;;;;
2021/11/21 13:57:00;;;;;;;9;13.1;;;;;;;10.2;67.3;98000;;;;
2021/11/21 14:07:00;;;;;;;9;13.1;;;;;;;9.9;68.3;98000;;;;
2021/11/21 14:18:01;;;;;;;9.6;14.3;;;;;;;9.7;68.7;98000;;;;
2021/11/21 14:29:00;;;;;;;9.6;14.3;;;;;;;9.5;69.3;98000;;;;
2021/11/21 14:39:00;;;;;;;9.6;14.3;;;;;;;9.5;69.6;98010;;;;
2021/11/21 14:50:00;;;;;;;11.4;14;;;;;;;9.5;69.8;98010;;;;
2021/11/21 15:00:00;;;;;;;11.4;14;;;;;;;9.5;69.8;98020;;;;
2021/11/21 15:10:02;;;;;;;11.4;14;;;;;;;9.5;70.3;98020;;;;
2021/11/21 15:21:00;;;;;;;13.4;16.2;;;;;;;9.5;70.2;98030;;;;
2021/11/21 15:32:04;;;;;;;13.4;16.2;;;;;;;9.5;70.4;98040;;;;
2021/11/21 15:42:00;;;;;;;17;22.5;;;;;;;9.5;70;98040;;;;
2021/11/21 15:53:00;;;;;;;17;22.5;;;;;;;9.4;70.1;98060;;;;
2021/11/21 16:03:00;;;;;;;17;22.5;;;;;;;9.5;70.1;98070;;;;
2021/11/21 16:14:01;;;;;;;16.3;18.9;;;;;;;9.5;70.3;98080;;;;
2021/11/21 16:24:00;;;;;;;16.3;18.9;;;;;;;9.5;70.1;98080;;;;
2021/11/21 16:35:00;;;;;;;16.3;18.9;;;;;;;9.4;70.1;98090;;;;
2021/11/21 16:45:00;;;;;;;20.3;23.3;;;;;;;9.4;70.2;98100;;;;
2021/11/21 16:56:00;;;;;;;20.3;23.3;;;;;;;9.2;70;98110;;;;
2021/11/21 17:06:01;;;;;;;20.3;23.3;;;;;;;9.2;69.9;98110;;;;
2021/11/21 17:17:00;;;;;;;20.2;23;;;;;;;9.1;70;98110;;;;
2021/11/21 17:28:00;;;;;;;20.2;23;;;;;;;9.1;69.9;98120;;;;
2021/11/21 17:38:02;;;;;;;20.2;23;;;;;;;9;69.9;98140;;;;
2021/11/21 17:48:00;;;;;;;22;26.2;;;;;;;9.1;69.9;98140;;;;
2021/11/21 17:59:00;;;;;;;22;26.2;;;;;;;9.1;70.1;98150;;;;
2021/11/21 18:09:00;;;;;;;22;26.2;;;;;;;9;70;98170;;;;
2021/11/21 18:19:02;;;;;;;27.5;30.6;;;;;;;8.9;70;98170;;;;
2021/11/21 18:30:01;;;;;;;27.5;30.6;;;;;;;8.8;70.3;98170;;;;
2021/11/21 18:41:00;;;;;;;24;28.2;;;;;;;8.7;70.4;98180;;;;
2021/11/21 18:51:00;;;;;;;24;28.2;;;;;;;8.6;70.4;98190;;;;
2021/11/21 19:01:01;;;;;;;24;28.2;;;;;;;8.6;70.6;98190;;;;
2021/11/21 19:11:00;;;;;;;27.4;31.2;;;;;;;8.6;70.5;98190;;;;
2021/11/21 19:22:01;;;;;;;27.4;31.2;;;;;;;8.6;70.6;98210;;;;
2021/11/21 19:32:02;;;;;;;27.4;31.2;;;;;;;8.5;70.9;98210;;;;
2021/11/21 19:43:00;;;;;;;25.8;31.1;;;;;;;8.4;71.1;98220;;;;
2021/11/21 19:54:00;;;;;;;25.8;31.1;;;;;;;8.4;71;98220;;;;
2021/11/21 20:04:00;;;;;;;25.8;31.1;;;;;;;8.3;71.6;98230;;;;
2021/11/21 20:15:01;;;;;;;29.4;33.7;;;;;;;8.3;71.7;98230;;;;
2021/11/21 20:26:00;;;;;;;29.4;33.7;;;;;;;8.2;71.8;98240;;;;
2021/11/21 20:36:00;;;;;;;29.4;33.7;;;;;;;8.2;71.7;98260;;;;
2021/11/21 20:46:01;;;;;;;31.4;36.9;;;;;;;8.1;72.3;98260;;;;
2021/11/21 20:57:01;;;;;;;31.4;36.9;;;;;;;8.2;71.9;98270;;;;
2021/11/21 21:08:00;;;;;;;31.4;36.9;;;;;;;8.2;71.9;98270;;;;
2021/11/21 21:18:02;;;;;;;32.2;40.6;;;;;;;8.1;72;98290;;;;
2021/11/21 21:28:00;;;;;;;32.2;40.6;;;;;;;8.1;72.1;98300;;;;
2021/11/21 21:39:00;;;;;;;32.2;40.6;;;;;;;8;72.4;98290;;;;
2021/11/21 21:49:00;;;;;;;34.8;44.6;;;;;;;8;72.6;98290;;;;
2021/11/21 22:00:00;;;;;;;34.8;44.6;;;;;;;8;72.3;98290;;;;
2021/11/21 22:10:00;;;;;;;34.8;44.6;;;;;;;8;72.9;98300;;;;
2021/11/21 22:20:00;;;;;;;32.4;37.5;;;;;;;8;72.6;98300;;;;
2021/11/21 22:31:00;;;;;;;32.4;37.5;;;;;;;7.8;73.7;98290;;;;
2021/11/21 22:41:00;;;;;;;32;39.2;;;;;;;7.9;73.1;98300;;;;
2021/11/21 22:51:00;;;;;;;32;39.2;;;;;;;7.9;73.1;98300;;;;
2021/11/21 23:02:01;;;;;;;32;39.2;;;;;;;7.7;73.9;98300;;;;
2021/11/21 23:13:01;;;;;;;34.3;40.5;;;;;;;7.8;73.2;98310;;;;
2021/11/21 23:24:00;;;;;;;34.3;40.5;;;;;;;7.8;73.3;98310;;;;
2021/11/21 23:34:00;;;;;;;34.3;40.5;;;;;;;7.8;73.3;98320;;;;
2021/11/21 23:45:00;;;;;;;35.2;43.4;;;;;;;7.8;73.5;98330;;;;
2021/11/21 23:55:01;;;;;;;35.2;43.4;;;;;;;7.7;74;98330;;;;
